Time;durP1;ratioP1;P1;durP2;ratioP2;P2;SDS_P1;SDS_P2;PMS_P1;PMS_P2;Temp;Humidity;BMP_temperature;BMP_pressure;BME280_temperature;BME280_humidity;BME280_pressure;Samples;Min_cycle;Max_cycle;Signal;HPM_P1;HPM_P2
2022/08/15 00:00:56;;;;;;;;;;;20.70;71.20;;;;;;5087815;28;20387;-60
2022/08/15 00:03:27;;;;;;;;;;;20.60;71.40;;;;;;5088798;28;19924;-60
2022/08/15 00:06:16;;;;;;;;;;;20.60;71.60;;;;;;5088750;28;19928;-60
2022/08/15 00:09:05;;;;;;;;;;;20.50;71.80;;;;;;5087004;28;19935;-56
2022/08/15 00:11:36;;;;;;;;;;;20.50;72.10;;;;;;5084480;28;19928;-60
2022/08/15 00:14:09;;;;;;;;;;;20.50;72.10;;;;;;5075250;28;19931;-59
2022/08/15 00:16:57;;;;;;;;;;;20.40;72.10;;;;;;5088697;28;19932;-58
2022/08/15 00:19:29;;;;;;;;;;;20.30;72.40;;;;;;5088501;28;20292;-59
2022/08/15 00:22:01;;;;;;;;;;;20.30;72.60;;;;;;5088803;28;19931;-60
2022/08/15 00:24:31;;;;;;;;;;;20.20;72.90;;;;;;5088542;28;20406;-60
2022/08/15 00:27:02;;;;;;;;;;;20.20;72.90;;;;;;5082041;28;19928;-60
2022/08/15 00:29:38;;;;;;;;;;;20.10;73.10;;;;;;5087270;28;19928;-59
2022/08/15 00:32:11;;;;;;;;;;;20.10;73.40;;;;;;5088802;28;20272;-58
2022/08/15 00:34:59;;;;;;;;;;;20.10;73.50;;;;;;5088298;28;20298;-60
2022/08/15 00:37:27;;;;;;;;;;;20.00;73.70;;;;;;5087042;28;19932;-61
2022/08/15 00:39:56;;;;;;;;;;;20.00;73.70;;;;;;5087128;28;19924;-61
2022/08/15 00:42:25;;;;;;;;;;;19.90;73.60;;;;;;5078493;28;19932;-59
2022/08/15 00:44:57;;;;;;;;;;;19.90;73.80;;;;;;5080646;28;19928;-60
2022/08/15 00:47:34;;;;;;;;;;;19.90;73.90;;;;;;5088402;28;19924;-59
2022/08/15 00:50:10;;;;;;;;;;;19.90;73.90;;;;;;5088108;28;19924;-56
2022/08/15 00:53:00;;;;;;;;;;;19.90;74.00;;;;;;5087374;28;19932;-60
2022/08/15 00:55:28;;;;;;;;;;;19.80;73.90;;;;;;5088126;28;19924;-60
2022/08/15 00:57:59;;;;;;;;;;;19.80;74.00;;;;;;5062912;28;19928;-57
2022/08/15 01:00:38;;;;;;;;;;;19.80;74.00;;;;;;5089408;28;20375;-58
2022/08/15 01:03:15;;;;;;;;;;;19.80;74.20;;;;;;5088860;28;20283;-56
2022/08/15 01:05:48;;;;;;;;;;;19.70;74.20;;;;;;5068520;28;19928;-62
2022/08/15 01:08:19;;;;;;;;;;;19.70;74.30;;;;;;5079407;28;19924;-59
2022/08/15 01:11:06;;;;;;;;;;;19.70;74.30;;;;;;5090772;28;19944;-60
2022/08/15 01:13:35;;;;;;;;;;;19.60;74.40;;;;;;5089120;28;19925;-60
2022/08/15 01:16:23;;;;;;;;;;;19.50;74.70;;;;;;5091800;28;19940;-59
2022/08/15 01:19:27;;;;;;;;;;;19.50;74.90;;;;;;5091634;28;20383;-60
2022/08/15 01:22:08;;;;;;;;;;;19.50;74.90;;;;;;5090818;28;19935;-61
2022/08/15 01:24:48;;;;;;;;;;;19.40;75.40;;;;;;5090162;28;19924;-61
2022/08/15 01:27:41;;;;;;;;;;;19.30;75.80;;;;;;5089025;28;19935;-61
2022/08/15 01:30:11;;;;;;;;;;;19.30;76.00;;;;;;5090038;28;20298;-58
2022/08/15 01:32:58;;;;;;;;;;;19.20;76.10;;;;;;5090577;27;20322;-61
2022/08/15 01:35:27;;;;;;;;;;;19.20;76.60;;;;;;5073108;28;20380;-60
2022/08/15 01:37:57;;;;;;;;;;;19.10;76.60;;;;;;5077844;28;19924;-61
2022/08/15 01:40:36;;;;;;;;;;;19.10;77.00;;;;;;5094559;28;19924;-60
2022/08/15 01:43:23;;;;;;;;;;;19.00;77.30;;;;;;5080390;28;19932;-56
2022/08/15 01:45:52;;;;;;;;;;;19.00;77.70;;;;;;5072103;28;19925;-54
2022/08/15 01:48:25;;;;;;;;;;;18.90;78.00;;;;;;5073026;28;19932;-58
2022/08/15 01:50:56;;;;;;;;;;;18.90;78.70;;;;;;5073132;28;20379;-56
2022/08/15 01:53:30;;;;;;;;;;;18.80;78.90;;;;;;5089960;28;20298;-54
2022/08/15 01:56:06;;;;;;;;;;;18.80;79.40;;;;;;5074202;28;19932;-57
2022/08/15 01:58:55;;;;;;;;;;;18.70;79.60;;;;;;5075358;28;19925;-58
2022/08/15 02:01:56;;;;;;;;;;;18.80;79.70;;;;;;5072851;28;19932;-57
2022/08/15 02:04:28;;;;;;;;;;;18.80;79.90;;;;;;5072079;28;19924;-55
2022/08/15 02:06:57;;;;;;;;;;;18.80;80.10;;;;;;5072463;28;20303;-53
2022/08/15 02:09:28;;;;;;;;;;;18.90;80.00;;;;;;5055898;28;19947;-57
2022/08/15 02:12:18;;;;;;;;;;;18.90;80.10;;;;;;5088395;28;19931;-53
2022/08/15 02:15:12;;;;;;;;;;;19.00;80.10;;;;;;5072638;28;20275;-55
2022/08/15 02:17:41;;;;;;;;;;;19.00;80.10;;;;;;5073533;28;19925;-55
2022/08/15 02:20:09;;;;;;;;;;;19.00;80.00;;;;;;5072544;28;19929;-54
2022/08/15 02:22:54;;;;;;;;;;;19.10;79.90;;;;;;5072447;28;19931;-58
2022/08/15 02:25:23;;;;;;;;;;;19.10;79.80;;;;;;5072336;28;19925;-55
2022/08/15 02:27:53;;;;;;;;;;;19.10;79.80;;;;;;5089459;28;19932;-54
2022/08/15 02:30:23;;;;;;;;;;;19.10;79.80;;;;;;5072262;28;20371;-55
2022/08/15 02:33:03;;;;;;;;;;;19.10;79.80;;;;;;5072073;28;19931;-56
2022/08/15 02:35:32;;;;;;;;;;;19.10;79.80;;;;;;5089024;28;19932;-55
2022/08/15 02:38:05;;;;;;;;;;;19.10;79.90;;;;;;5088809;28;19951;-55
2022/08/15 02:40:47;;;;;;;;;;;19.00;79.90;;;;;;5088857;28;19924;-54
2022/08/15 02:43:20;;;;;;;;;;;19.00;80.00;;;;;;5072088;28;19925;-54
2022/08/15 02:45:49;;;;;;;;;;;19.00;80.00;;;;;;5071832;28;19924;-55
2022/08/15 02:48:39;;;;;;;;;;;19.00;80.10;;;;;;5071979;28;19925;-56
2022/08/15 02:51:12;;;;;;;;;;;19.00;80.30;;;;;;5071987;28;19925;-54
2022/08/15 02:53:44;;;;;;;;;;;18.90;80.30;;;;;;5071884;28;19931;-53
2022/08/15 02:56:16;;;;;;;;;;;18.80;80.50;;;;;;5088485;28;19932;-53
2022/08/15 02:58:45;;;;;;;;;;;18.80;80.70;;;;;;5071685;28;20286;-54
2022/08/15 03:01:13;;;;;;;;;;;18.70;80.90;;;;;;5071884;28;20371;-54
2022/08/15 03:03:50;;;;;;;;;;;18.70;81.00;;;;;;5072115;28;20399;-53
2022/08/15 03:06:20;;;;;;;;;;;18.60;81.20;;;;;;5089010;28;19924;-53
2022/08/15 03:09:06;;;;;;;;;;;18.60;81.50;;;;;;5054963;28;19924;-58
2022/08/15 03:11:40;;;;;;;;;;;18.50;81.90;;;;;;5071294;28;19936;-60
2022/08/15 03:14:36;;;;;;;;;;;18.40;81.90;;;;;;5088124;28;19947;-59
2022/08/15 03:17:09;;;;;;;;;;;18.40;82.40;;;;;;5087422;28;20492;-58
2022/08/15 03:19:43;;;;;;;;;;;18.30;82.40;;;;;;5088262;28;19932;-56
2022/08/15 03:22:14;;;;;;;;;;;18.20;82.60;;;;;;5088421;28;19932;-60
2022/08/15 03:25:01;;;;;;;;;;;18.20;82.90;;;;;;5071211;28;19924;-58
2022/08/15 03:27:30;;;;;;;;;;;18.20;83.20;;;;;;5072793;28;19925;-59
2022/08/15 03:30:05;;;;;;;;;;;18.20;83.40;;;;;;5071203;28;20402;-59
2022/08/15 03:32:54;;;;;;;;;;;18.20;83.50;;;;;;5071117;28;20446;-59
2022/08/15 03:35:25;;;;;;;;;;;18.10;83.80;;;;;;5071129;28;20484;-60
2022/08/15 03:37:59;;;;;;;;;;;18.10;84.20;;;;;;5087879;28;19924;-60
2022/08/15 03:40:35;;;;;;;;;;;18.10;84.30;;;;;;5087877;28;19925;-61
2022/08/15 03:43:05;;;;;;;;;;;18.10;84.50;;;;;;5071027;28;19932;-57
2022/08/15 03:45:43;;;;;;;;;;;18.10;84.70;;;;;;5070999;28;19924;-60
2022/08/15 03:48:11;;;;;;;;;;;18.10;84.90;;;;;;5071018;28;19924;-59
2022/08/15 03:50:53;;;;;;;;;;;18.10;85.10;;;;;;5087710;28;19932;-60
2022/08/15 03:53:28;;;;;;;;;;;18.10;85.20;;;;;;5087878;28;19925;-61
2022/08/15 03:55:57;;;;;;;;;;;18.10;85.40;;;;;;5072230;28;19931;-59
2022/08/15 03:58:28;;;;;;;;;;;18.10;85.60;;;;;;5070715;28;19932;-60
2022/08/15 04:01:08;;;;;;;;;;;18.10;85.70;;;;;;5087809;28;19932;-60
2022/08/15 04:03:41;;;;;;;;;;;18.10;85.80;;;;;;5071091;28;19924;-61
2022/08/15 04:06:11;;;;;;;;;;;18.20;86.10;;;;;;5086959;28;20268;-59
2022/08/15 04:08:43;;;;;;;;;;;18.20;86.20;;;;;;5070468;28;19924;-57
2022/08/15 04:11:30;;;;;;;;;;;18.20;86.30;;;;;;5070699;28;19949;-56
2022/08/15 04:14:07;;;;;;;;;;;18.20;86.30;;;;;;5070694;28;19975;-58
2022/08/15 04:16:56;;;;;;;;;;;18.20;86.40;;;;;;5087566;28;19950;-55
2022/08/15 04:19:33;;;;;;;;;;;18.30;86.60;;;;;;5070553;28;19925;-59
2022/08/15 04:22:26;;;;;;;;;;;18.30;86.70;;;;;;5070702;28;19995;-54
2022/08/15 04:25:11;;;;;;;;;;;18.30;86.90;;;;;;5070909;28;19925;-55
2022/08/15 04:27:47;;;;;;;;;;;18.30;87.10;;;;;;5070700;28;20402;-55
2022/08/15 04:30:24;;;;;;;;;;;18.30;88.00;;;;;;5070496;28;19925;-55
2022/08/15 04:32:53;;;;;;;;;;;18.30;87.90;;;;;;5087319;28;19994;-55
2022/08/15 04:35:26;;;;;;;;;;;18.20;88.50;;;;;;5088364;28;19925;-53
2022/08/15 04:37:58;;;;;;;;;;;18.20;88.70;;;;;;5091121;28;19925;-54
2022/08/15 04:40:28;;;;;;;;;;;18.20;89.10;;;;;;5074335;28;19939;-54
2022/08/15 04:43:17;;;;;;;;;;;18.20;89.70;;;;;;5091100;28;19931;-54
2022/08/15 04:45:45;;;;;;;;;;;18.10;89.80;;;;;;5074263;28;19925;-56
2022/08/15 04:48:16;;;;;;;;;;;18.20;90.10;;;;;;5088448;27;19928;-54
2022/08/15 04:50:49;;;;;;;;;;;18.10;90.10;;;;;;5070659;28;20387;-56
2022/08/15 04:53:24;;;;;;;;;;;18.20;90.30;;;;;;5070577;28;19931;-55
2022/08/15 04:56:00;;;;;;;;;;;18.30;90.40;;;;;;5072145;28;19943;-53
2022/08/15 04:58:34;;;;;;;;;;;18.30;90.80;;;;;;5084293;28;19924;-58
2022/08/15 05:01:19;;;;;;;;;;;18.30;91.30;;;;;;5073889;28;19924;-54
2022/08/15 05:03:51;;;;;;;;;;;18.30;91.90;;;;;;5083853;28;19927;-53
2022/08/15 05:06:22;;;;;;;;;;;18.20;91.90;;;;;;5070935;28;19924;-53
2022/08/15 05:09:03;;;;;;;;;;;18.20;91.90;;;;;;5074826;28;20275;-54
2022/08/15 05:11:31;;;;;;;;;;;18.20;92.10;;;;;;5091983;28;19947;-54
2022/08/15 05:14:19;;;;;;;;;;;18.20;92.30;;;;;;5090742;28;19924;-55
2022/08/15 05:17:10;;;;;;;;;;;18.10;92.50;;;;;;5087570;28;19924;-54
2022/08/15 05:19:38;;;;;;;;;;;18.10;92.90;;;;;;5067872;28;19932;-57
2022/08/15 05:22:06;;;;;;;;;;;18.10;93.20;;;;;;5070848;28;19924;-57
2022/08/15 05:24:34;;;;;;;;;;;18.10;93.40;;;;;;5082341;28;20358;-54
2022/08/15 05:27:05;;;;;;;;;;;18.10;93.60;;;;;;5086971;28;19925;-55
2022/08/15 05:29:38;;;;;;;;;;;18.20;93.80;;;;;;5091379;28;19932;-54
2022/08/15 05:32:08;;;;;;;;;;;18.20;94.10;;;;;;5087539;28;20314;-56
2022/08/15 05:34:46;;;;;;;;;;;18.20;94.30;;;;;;5067110;28;19936;-60
2022/08/15 05:37:18;;;;;;;;;;;18.30;94.50;;;;;;5069107;28;20398;-60
2022/08/15 05:39:51;;;;;;;;;;;18.30;94.60;;;;;;5070139;28;19928;-56
2022/08/15 05:42:37;;;;;;;;;;;18.30;95.10;;;;;;5088765;28;19931;-55
2022/08/15 05:45:18;;;;;;;;;;;18.40;95.50;;;;;;5091445;28;19923;-60
2022/08/15 05:48:14;;;;;;;;;;;18.40;95.90;;;;;;5085777;28;19928;-60
2022/08/15 05:50:53;;;;;;;;;;;18.50;96.50;;;;;;5069720;28;19924;-55
2022/08/15 05:53:48;;;;;;;;;;;18.50;96.80;;;;;;5084151;28;19931;-54
2022/08/15 05:56:35;;;;;;;;;;;18.50;97.40;;;;;;5090024;28;19924;-54
2022/08/15 05:59:14;;;;;;;;;;;18.60;97.70;;;;;;5089537;28;20016;-55
2022/08/15 06:01:51;;;;;;;;;;;18.60;97.90;;;;;;5089778;28;20235;-56
2022/08/15 06:04:39;;;;;;;;;;;18.60;98.30;;;;;;5084473;28;19940;-56
2022/08/15 06:07:14;;;;;;;;;;;18.60;98.50;;;;;;5068656;28;19933;-54
2022/08/15 06:09:51;;;;;;;;;;;18.60;98.70;;;;;;5087412;28;19928;-61
2022/08/15 06:12:26;;;;;;;;;;;18.70;98.90;;;;;;5089137;28;20287;-57
2022/08/15 06:15:03;;;;;;;;;;;18.70;99.10;;;;;;5089398;28;19932;-61
2022/08/15 06:17:38;;;;;;;;;;;18.70;99.30;;;;;;5089378;28;19928;-61
2022/08/15 06:20:09;;;;;;;;;;;18.70;99.40;;;;;;5069528;28;19924;-56
2022/08/15 06:23:18;;;;;;;;;;;18.70;99.60;;;;;;5078843;28;19931;-58
2022/08/15 06:26:10;;;;;;;;;;;18.70;99.70;;;;;;5089196;28;20048;-61
2022/08/15 06:28:48;;;;;;;;;;;18.70;99.90;;;;;;5089201;28;19924;-60
2022/08/15 06:31:31;;;;;;;;;;;18.80;99.90;;;;;;5089233;28;19931;-61
2022/08/15 06:34:12;;;;;;;;;;;18.80;99.90;;;;;;5063075;28;20508;-61
2022/08/15 06:37:12;;;;;;;;;;;18.90;99.90;;;;;;5069321;28;19924;-61
2022/08/15 06:39:47;;;;;;;;;;;18.90;99.90;;;;;;5088900;28;19928;-59
2022/08/15 06:42:50;;;;;;;;;;;18.90;99.90;;;;;;5089876;28;19928;-58
2022/08/15 06:45:41;;;;;;;;;;;19.00;99.90;;;;;;5090125;28;19931;-60
2022/08/15 06:48:19;;;;;;;;;;;19.00;99.90;;;;;;5086384;28;19924;-61
2022/08/15 06:51:09;;;;;;;;;;;19.10;99.90;;;;;;5066646;28;19924;-60
2022/08/15 06:53:53;;;;;;;;;;;19.10;99.90;;;;;;5084904;28;19935;-58
2022/08/15 06:56:30;;;;;;;;;;;19.10;99.90;;;;;;5085658;28;19931;-59
2022/08/15 06:59:18;;;;;;;;;;;19.20;99.90;;;;;;5084678;28;19946;-56
2022/08/15 07:02:23;;;;;;;;;;;19.20;99.90;;;;;;5086381;28;19946;-61
2022/08/15 07:05:18;;;;;;;;;;;19.30;99.90;;;;;;5054056;28;19925;-59
2022/08/15 07:07:54;;;;;;;;;;;19.30;99.90;;;;;;5074833;28;20136;-59
2022/08/15 07:10:40;;;;;;;;;;;19.40;99.90;;;;;;5088329;28;19935;-59
2022/08/15 07:13:25;;;;;;;;;;;19.40;99.90;;;;;;5084945;28;20695;-59
2022/08/15 07:15:56;;;;;;;;;;;19.50;99.90;;;;;;5085910;28;19931;-61
2022/08/15 07:18:28;;;;;;;;;;;19.50;99.90;;;;;;5086726;28;19931;-61
2022/08/15 07:21:07;;;;;;;;;;;19.60;99.90;;;;;;5084673;28;19931;-59
2022/08/15 07:23:57;;;;;;;;;;;19.70;99.90;;;;;;5087897;28;19931;-60
2022/08/15 07:26:27;;;;;;;;;;;19.70;99.90;;;;;;5088315;28;19932;-58
2022/08/15 07:29:00;;;;;;;;;;;19.80;99.90;;;;;;5088170;28;20286;-53
2022/08/15 07:31:33;;;;;;;;;;;19.80;99.90;;;;;;5087960;28;19935;-54
2022/08/15 07:34:22;;;;;;;;;;;19.90;99.90;;;;;;5079396;28;19925;-54
2022/08/15 07:36:57;;;;;;;;;;;20.00;99.90;;;;;;5067761;28;19924;-53
2022/08/15 07:39:38;;;;;;;;;;;20.10;99.90;;;;;;5084608;28;19924;-54
2022/08/15 07:42:14;;;;;;;;;;;20.30;99.90;;;;;;5070641;28;19935;-53
2022/08/15 07:44:59;;;;;;;;;;;20.40;99.90;;;;;;5089199;28;20298;-54
2022/08/15 07:47:31;;;;;;;;;;;20.60;99.90;;;;;;5087792;28;20298;-54
2022/08/15 07:50:07;;;;;;;;;;;20.70;99.90;;;;;;5074389;28;19936;-54
2022/08/15 07:52:37;;;;;;;;;;;20.70;99.80;;;;;;5074256;28;19928;-55
2022/08/15 07:55:26;;;;;;;;;;;20.70;99.60;;;;;;5074507;28;19939;-61
2022/08/15 07:58:13;;;;;;;;;;;20.80;99.60;;;;;;5087286;28;20279;-62
2022/08/15 08:01:08;;;;;;;;;;;20.70;99.80;;;;;;5087709;28;20230;-62
2022/08/15 08:03:59;;;;;;;;;;;20.80;99.90;;;;;;5084370;28;19928;-60
2022/08/15 08:06:36;;;;;;;;;;;20.80;99.90;;;;;;5068719;28;19925;-60
2022/08/15 08:09:23;;;;;;;;;;;20.80;99.90;;;;;;5086659;28;19924;-55
2022/08/15 08:11:56;;;;;;;;;;;20.90;99.90;;;;;;5091322;28;20260;-61
2022/08/15 08:14:35;;;;;;;;;;;21.00;99.90;;;;;;5092938;28;19924;-61
2022/08/15 08:17:20;;;;;;;;;;;21.10;99.90;;;;;;5091779;28;19932;-62
2022/08/15 08:19:56;;;;;;;;;;;21.20;99.90;;;;;;5083732;28;20374;-61
2022/08/15 08:22:50;;;;;;;;;;;21.40;99.90;;;;;;5075942;28;19925;-62
2022/08/15 08:25:40;;;;;;;;;;;21.50;99.90;;;;;;5060129;28;19924;-61
2022/08/15 08:28:28;;;;;;;;;;;21.60;99.90;;;;;;5066767;28;20394;-60
2022/08/15 08:31:18;;;;;;;;;;;21.60;99.90;;;;;;5091635;28;19928;-59
2022/08/15 08:34:05;;;;;;;;;;;21.70;99.90;;;;;;5092395;28;19924;-57
2022/08/15 08:36:45;;;;;;;;;;;21.70;99.90;;;;;;5072770;28;19947;-57
2022/08/15 08:39:19;;;;;;;;;;;21.70;99.90;;;;;;5090324;28;19931;-57
2022/08/15 08:41:56;;;;;;;;;;;21.70;99.90;;;;;;5092366;28;19925;-55
2022/08/15 08:44:33;;;;;;;;;;;21.60;99.80;;;;;;5074679;28;19924;-59
2022/08/15 08:47:16;;;;;;;;;;;21.60;99.90;;;;;;5092394;28;19924;-60
2022/08/15 08:49:47;;;;;;;;;;;21.60;99.90;;;;;;5085543;28;19932;-56
2022/08/15 08:52:53;;;;;;;;;;;21.60;99.90;;;;;;5077836;28;19947;-61
2022/08/15 08:55:25;;;;;;;;;;;21.60;99.90;;;;;;5092570;28;19936;-56
2022/08/15 08:58:16;;;;;;;;;;;21.60;99.90;;;;;;5092010;28;19935;-55
2022/08/15 09:01:06;;;;;;;;;;;21.50;99.90;;;;;;5091982;28;19931;-57
2022/08/15 09:03:39;;;;;;;;;;;21.60;99.90;;;;;;5092030;28;19935;-60
2022/08/15 09:06:10;;;;;;;;;;;21.60;99.90;;;;;;5074051;28;19928;-60
2022/08/15 09:08:57;;;;;;;;;;;21.70;99.90;;;;;;5086985;28;20228;-58
2022/08/15 09:11:30;;;;;;;;;;;21.90;99.90;;;;;;5090836;28;19927;-55
2022/08/15 09:14:02;;;;;;;;;;;22.00;99.90;;;;;;5091832;28;19924;-56
2022/08/15 09:16:31;;;;;;;;;;;22.20;99.90;;;;;;5092239;28;20727;-62
2022/08/15 09:19:18;;;;;;;;;;;22.40;99.80;;;;;;5091697;28;19931;-61
2022/08/15 09:21:46;;;;;;;;;;;22.50;99.80;;;;;;5070059;28;19925;-60
2022/08/15 09:24:18;;;;;;;;;;;22.70;99.40;;;;;;5091518;28;19924;-63
2022/08/15 09:27:16;;;;;;;;;;;22.70;98.80;;;;;;5091779;28;19928;-60
2022/08/15 09:30:11;;;;;;;;;;;22.80;98.40;;;;;;5091897;28;19939;-55
2022/08/15 09:33:01;;;;;;;;;;;22.80;98.40;;;;;;5091326;28;19924;-54
2022/08/15 09:35:32;;;;;;;;;;;22.70;98.30;;;;;;5086321;28;20403;-53
2022/08/15 09:38:10;;;;;;;;;;;22.70;98.30;;;;;;5078706;28;19978;-55
2022/08/15 09:40:55;;;;;;;;;;;22.70;98.30;;;;;;5089834;28;19928;-54
2022/08/15 09:43:48;;;;;;;;;;;22.60;98.20;;;;;;5091168;28;19931;-54
2022/08/15 09:46:24;;;;;;;;;;;22.60;98.00;;;;;;5090693;28;20411;-54
2022/08/15 09:49:27;;;;;;;;;;;22.40;98.00;;;;;;5091199;28;19924;-54
2022/08/15 09:52:23;;;;;;;;;;;22.30;98.10;;;;;;5071689;28;19935;-54
2022/08/15 09:55:25;;;;;;;;;;;22.20;98.40;;;;;;5082390;28;19931;-54
2022/08/15 09:58:09;;;;;;;;;;;22.20;98.60;;;;;;5091195;28;20303;-56
2022/08/15 10:00:59;;;;;;;;;;;22.30;98.80;;;;;;5089669;28;19924;-54
2022/08/15 10:03:43;;;;;;;;;;;22.30;98.80;;;;;;5080251;28;19925;-54
2022/08/15 10:06:26;;;;;;;;;;;22.40;98.80;;;;;;5075054;28;19924;-54
2022/08/15 10:09:15;;;;;;;;;;;22.50;98.70;;;;;;5087434;28;19924;-54
2022/08/15 10:11:56;;;;;;;;;;;22.50;98.30;;;;;;5089910;28;19932;-54
2022/08/15 10:14:40;;;;;;;;;;;22.50;98.20;;;;;;5090495;28;19924;-54
2022/08/15 10:17:23;;;;;;;;;;;22.50;98.10;;;;;;5089977;28;19928;-54
2022/08/15 10:19:55;;;;;;;;;;;22.50;98.20;;;;;;5088247;28;19939;-58
2022/08/15 10:22:42;;;;;;;;;;;22.50;98.20;;;;;;5076763;28;20107;-55
2022/08/15 10:25:18;;;;;;;;;;;22.50;98.20;;;;;;5090690;28;19931;-57
2022/08/15 10:27:57;;;;;;;;;;;22.60;98.20;;;;;;5090371;28;20298;-60
2022/08/15 10:30:30;;;;;;;;;;;22.60;98.20;;;;;;5090362;28;19932;-59
2022/08/15 10:33:27;;;;;;;;;;;22.60;98.20;;;;;;5089247;28;19939;-57
2022/08/15 10:36:05;;;;;;;;;;;22.60;98.20;;;;;;5079540;28;19933;-60
2022/08/15 10:39:02;;;;;;;;;;;22.60;98.10;;;;;;5084749;28;19924;-59
2022/08/15 10:41:45;;;;;;;;;;;22.60;98.10;;;;;;5088846;28;20375;-56
2022/08/15 10:44:21;;;;;;;;;;;22.60;97.90;;;;;;5089780;28;19924;-60
2022/08/15 10:47:17;;;;;;;;;;;22.60;98.00;;;;;;5088922;28;20530;-61
2022/08/15 10:50:12;;;;;;;;;;;22.50;98.20;;;;;;5088469;28;20379;-57
2022/08/15 10:53:07;;;;;;;;;;;22.40;98.60;;;;;;5077007;28;19928;-59
2022/08/15 10:55:36;;;;;;;;;;;22.30;99.00;;;;;;5090402;28;20296;-56
2022/08/15 10:58:30;;;;;;;;;;;22.20;99.20;;;;;;5088488;28;19939;-55
2022/08/15 11:01:20;;;;;;;;;;;22.20;99.40;;;;;;5089676;28;20500;-55
2022/08/15 11:04:10;;;;;;;;;;;22.20;99.70;;;;;;5089666;28;20448;-60
2022/08/15 11:06:57;;;;;;;;;;;22.20;99.90;;;;;;5071999;28;20402;-54
2022/08/15 11:09:25;;;;;;;;;;;22.30;99.90;;;;;;5087246;28;19947;-60
2022/08/15 11:11:57;;;;;;;;;;;22.40;99.90;;;;;;5089560;28;19924;-55
2022/08/15 11:14:38;;;;;;;;;;;22.50;99.90;;;;;;5089611;28;19928;-57
2022/08/15 11:17:14;;;;;;;;;;;22.70;99.90;;;;;;5089484;28;20283;-59
2022/08/15 11:19:43;;;;;;;;;;;22.80;99.90;;;;;;5089549;28;19928;-58
2022/08/15 11:22:34;;;;;;;;;;;22.90;99.80;;;;;;5073526;28;20309;-55
2022/08/15 11:25:11;;;;;;;;;;;23.10;99.60;;;;;;5089705;28;19928;-60
2022/08/15 11:27:38;;;;;;;;;;;23.10;99.40;;;;;;5089035;28;19955;-60
2022/08/15 11:30:08;;;;;;;;;;;23.20;99.30;;;;;;5088257;28;19931;-61
2022/08/15 11:32:49;;;;;;;;;;;23.20;98.80;;;;;;5089273;28;20186;-59
2022/08/15 11:35:29;;;;;;;;;;;23.20;98.80;;;;;;5087196;28;19935;-59
2022/08/15 11:37:59;;;;;;;;;;;23.30;98.40;;;;;;5075581;28;19924;-58
2022/08/15 11:40:29;;;;;;;;;;;23.30;98.00;;;;;;5071058;28;20383;-59
2022/08/15 11:42:58;;;;;;;;;;;23.30;97.80;;;;;;5088770;28;19924;-54
2022/08/15 11:45:40;;;;;;;;;;;23.30;98.00;;;;;;5088920;28;19924;-55
2022/08/15 11:48:23;;;;;;;;;;;23.40;97.90;;;;;;5089202;28;19924;-59
2022/08/15 11:51:08;;;;;;;;;;;23.40;97.70;;;;;;5081632;28;20295;-58
2022/08/15 11:53:41;;;;;;;;;;;23.40;97.50;;;;;;5082347;28;19932;-60
2022/08/15 11:56:09;;;;;;;;;;;23.40;97.00;;;;;;5088840;28;19924;-60
2022/08/15 11:58:55;;;;;;;;;;;23.30;96.70;;;;;;5087784;28;19934;-60
2022/08/15 12:01:31;;;;;;;;;;;23.20;96.70;;;;;;5088952;28;19924;-60
2022/08/15 12:04:02;;;;;;;;;;;23.10;96.70;;;;;;5088724;28;20291;-54
2022/08/15 12:06:53;;;;;;;;;;;23.00;96.80;;;;;;5077100;28;19932;-58
2022/08/15 12:09:24;;;;;;;;;;;23.10;97.20;;;;;;5087150;28;19936;-62
2022/08/15 12:12:35;;;;;;;;;;;23.20;97.10;;;;;;5087162;28;20383;-54
2022/08/15 12:15:07;;;;;;;;;;;23.30;96.90;;;;;;5085256;28;19924;-58
2022/08/15 12:17:35;;;;;;;;;;;23.40;96.70;;;;;;5088577;28;19931;-54
2022/08/15 12:20:32;;;;;;;;;;;23.50;96.60;;;;;;5088889;28;19947;-55
2022/08/15 12:23:19;;;;;;;;;;;23.60;96.20;;;;;;5088338;28;20291;-62
2022/08/15 12:25:51;;;;;;;;;;;23.70;96.00;;;;;;5088644;28;20383;-60
2022/08/15 12:28:22;;;;;;;;;;;23.70;95.60;;;;;;5087577;28;19925;-59
2022/08/15 12:31:28;;;;;;;;;;;23.70;95.60;;;;;;5087667;28;19932;-60
2022/08/15 12:34:02;;;;;;;;;;;23.70;95.90;;;;;;5085053;28;19951;-58
2022/08/15 12:36:50;;;;;;;;;;;23.80;95.80;;;;;;5082404;28;19925;-55
2022/08/15 12:39:37;;;;;;;;;;;23.90;95.70;;;;;;5088902;28;20363;-54
2022/08/15 12:42:09;;;;;;;;;;;23.90;95.70;;;;;;5088698;28;20279;-59
2022/08/15 12:44:59;;;;;;;;;;;23.90;95.60;;;;;;5088651;28;20348;-60
2022/08/15 12:47:28;;;;;;;;;;;23.90;95.70;;;;;;5088518;28;19928;-58
2022/08/15 12:50:00;;;;;;;;;;;23.90;95.80;;;;;;5088561;28;19924;-54
2022/08/15 12:52:27;;;;;;;;;;;24.00;95.80;;;;;;5077837;28;19931;-58
2022/08/15 12:54:57;;;;;;;;;;;24.00;95.90;;;;;;5087054;28;19924;-56
2022/08/15 12:57:28;;;;;;;;;;;24.00;95.90;;;;;;5089642;28;19931;-60
2022/08/15 13:00:16;;;;;;;;;;;24.00;95.90;;;;;;5092203;28;19924;-56
2022/08/15 13:03:15;;;;;;;;;;;24.00;96.10;;;;;;5090285;28;19935;-59
2022/08/15 13:05:49;;;;;;;;;;;24.00;96.10;;;;;;5091880;28;19924;-59
2022/08/15 13:08:37;;;;;;;;;;;24.10;96.00;;;;;;5083786;28;19923;-61
2022/08/15 13:11:08;;;;;;;;;;;24.00;96.20;;;;;;5092089;28;19924;-61
2022/08/15 13:13:43;;;;;;;;;;;24.10;96.20;;;;;;5091832;28;20119;-60
2022/08/15 13:16:16;;;;;;;;;;;24.10;96.20;;;;;;5091826;28;19928;-60
2022/08/15 13:19:06;;;;;;;;;;;24.10;96.10;;;;;;5091707;28;19948;-60
2022/08/15 13:24:25;;;;;;;;;;;24.10;96.20;;;;;;5091641;28;19924;-59
2022/08/15 13:26:53;;;;;;;;;;;24.10;96.20;;;;;;5091804;28;20096;-58
2022/08/15 13:29:23;;;;;;;;;;;24.10;96.30;;;;;;5091638;28;19998;-60
2022/08/15 13:31:51;;;;;;;;;;;24.10;96.40;;;;;;5091376;28;19931;-55
2022/08/15 13:34:19;;;;;;;;;;;24.10;96.40;;;;;;5091354;28;20536;-61
2022/08/15 13:36:49;;;;;;;;;;;24.10;96.50;;;;;;5086311;28;19925;-59
2022/08/15 13:39:25;;;;;;;;;;;24.20;96.40;;;;;;5089273;28;20418;-57
2022/08/15 13:41:57;;;;;;;;;;;24.20;96.00;;;;;;5091179;28;19947;-59
2022/08/15 13:44:45;;;;;;;;;;;24.30;95.90;;;;;;5090697;28;20291;-60
2022/08/15 13:47:18;;;;;;;;;;;24.30;95.70;;;;;;5091223;28;20387;-56
2022/08/15 13:49:46;;;;;;;;;;;24.30;95.80;;;;;;5089828;28;20290;-61
2022/08/15 13:52:16;;;;;;;;;;;24.30;95.70;;;;;;5084598;28;19928;-61
2022/08/15 13:55:04;;;;;;;;;;;24.30;95.60;;;;;;5091315;28;19928;-61
2022/08/15 13:57:42;;;;;;;;;;;24.30;95.60;;;;;;5090901;28;20271;-60
2022/08/15 14:00:31;;;;;;;;;;;24.30;95.60;;;;;;5091033;28;19935;-60
2022/08/15 14:03:20;;;;;;;;;;;24.30;95.30;;;;;;5090608;28;19950;-57
2022/08/15 14:05:50;;;;;;;;;;;24.30;95.10;;;;;;5090528;28;19931;-60
2022/08/15 14:08:18;;;;;;;;;;;24.20;94.80;;;;;;5084618;28;20278;-61
2022/08/15 14:11:06;;;;;;;;;;;24.30;95.00;;;;;;5087931;28;19924;-55
2022/08/15 14:13:41;;;;;;;;;;;24.30;95.00;;;;;;5090320;28;19928;-61
2022/08/15 14:16:10;;;;;;;;;;;24.40;95.00;;;;;;5090723;28;19931;-59
2022/08/15 14:18:57;;;;;;;;;;;24.40;94.50;;;;;;5090403;28;19938;-57
2022/08/15 14:21:30;;;;;;;;;;;24.50;94.50;;;;;;5089869;28;19931;-61
2022/08/15 14:23:59;;;;;;;;;;;24.50;94.20;;;;;;5085917;28;19924;-60
2022/08/15 14:26:30;;;;;;;;;;;24.60;94.30;;;;;;5089434;28;19924;-60
2022/08/15 14:29:32;;;;;;;;;;;24.60;94.30;;;;;;5090150;28;19924;-59
2022/08/15 14:32:16;;;;;;;;;;;24.70;94.20;;;;;;5090595;28;19935;-59
2022/08/15 14:35:04;;;;;;;;;;;24.70;93.60;;;;;;5090582;28;19924;-61
2022/08/15 14:37:53;;;;;;;;;;;24.70;93.70;;;;;;5085526;28;19955;-62
2022/08/15 14:40:24;;;;;;;;;;;24.70;93.90;;;;;;5090351;28;19924;-55
2022/08/15 14:42:53;;;;;;;;;;;24.70;93.50;;;;;;5089959;28;19924;-58
2022/08/15 14:45:26;;;;;;;;;;;24.70;93.40;;;;;;5090011;28;19931;-60
2022/08/15 14:48:16;;;;;;;;;;;24.70;93.40;;;;;;5090078;28;19935;-58
2022/08/15 14:51:04;;;;;;;;;;;24.70;93.50;;;;;;5090113;28;19924;-55
2022/08/15 14:53:51;;;;;;;;;;;24.80;93.70;;;;;;5087593;28;19924;-58
2022/08/15 14:56:20;;;;;;;;;;;24.80;93.30;;;;;;5089926;28;19924;-56
2022/08/15 14:58:58;;;;;;;;;;;24.80;93.50;;;;;;5088425;28;19924;-54
2022/08/15 15:01:26;;;;;;;;;;;24.90;93.50;;;;;;5090140;28;19924;-55
2022/08/15 15:04:01;;;;;;;;;;;25.00;93.20;;;;;;5089597;28;19937;-54
2022/08/15 15:06:35;;;;;;;;;;;25.00;93.20;;;;;;5090093;28;20390;-57
2022/08/15 15:09:07;;;;;;;;;;;25.10;93.30;;;;;;5087019;28;19935;-56
2022/08/15 15:11:45;;;;;;;;;;;25.20;93.40;;;;;;5089654;28;20415;-54
2022/08/15 15:14:21;;;;;;;;;;;25.40;93.50;;;;;;5087887;28;19924;-60
2022/08/15 15:16:53;;;;;;;;;;;25.60;92.40;;;;;;5089817;28;19924;-60
2022/08/15 15:19:25;;;;;;;;;;;25.60;91.80;;;;;;5089002;28;19931;-55
2022/08/15 15:22:07;;;;;;;;;;;25.60;91.80;;;;;;5087572;28;19924;-55
2022/08/15 15:24:42;;;;;;;;;;;25.60;91.50;;;;;;5069101;28;20316;-60
2022/08/15 15:27:10;;;;;;;;;;;25.60;91.10;;;;;;5069081;28;19928;-61